West York, Illinois
Current Conditions -  °F | °C
As of 6:35 PM on Saturday 25 Oct 2014 (Local Time) from KRSV Reporting Station
Clear Clear  
Wind Chill: 63°   Ceiling: Unl
Heat Index: 63°   Visibility: 10mi
Dew Point: 51°   Wind: 5mph
Humidity: 65%   Direction: 260°W
Pressure: 29.98"   Gusts: NA
Location:  39.17°N, 87.67°W
Report Text: KRSV 252335Z AUTO 26004KT 10SM CLR 17/11 A2998 RMK AO2 T01720105
Loading
Personal Weather Stations






























Interactive Weather Map
Tropical Storm Tracking
New forecast layout! Learn more

10-Day Weather Forecast

Advertisements
Track Severe Weather on mobile